createdAt,value
2023-03-06T00:00:26.698Z,5.36
2023-03-06T00:05:24.036Z,5.41
2023-03-06T00:10:23.007Z,5.42
2023-03-06T00:15:23.205Z,5.33
2023-03-06T00:20:49.580Z,5.39
2023-03-06T00:25:47.432Z,5.46
2023-03-06T00:30:48.222Z,5.55
2023-03-06T00:35:45.669Z,5.57
2023-03-06T00:40:44.194Z,5.46
2023-03-06T00:45:41.874Z,5.39
2023-03-06T00:50:40.685Z,5.48
2023-03-06T00:55:38.968Z,5.39
2023-03-06T01:00:36.630Z,5.51
2023-03-06T01:05:34.964Z,5.46
2023-03-06T01:10:33.100Z,5.36
2023-03-06T01:15:30.828Z,5.40
2023-03-06T01:20:29.104Z,5.28
2023-03-06T01:25:26.457Z,5.28
2023-03-06T01:30:23.829Z,5.15
2023-03-06T01:35:23.567Z,5.12
2023-03-06T01:40:21.544Z,5.03
2023-03-06T01:45:19.327Z,5.14
2023-03-06T01:50:19.754Z,5.13
2023-03-06T01:55:19.758Z,5.15
2023-03-06T02:00:21.684Z,5.10
2023-03-06T02:05:20.192Z,5.13
2023-03-06T02:10:22.584Z,5.14
2023-03-06T02:15:24.215Z,5.07
2023-03-06T02:20:31.788Z,5.11
2023-03-06T02:25:35.722Z,4.94
2023-03-06T02:30:35.540Z,4.97
2023-03-06T02:35:34.529Z,5.00
2023-03-06T02:40:33.110Z,4.96
2023-03-06T02:45:31.321Z,4.88
2023-03-06T02:50:29.590Z,4.86
2023-03-06T02:55:26.938Z,4.95
2023-03-06T03:00:26.794Z,4.78
2023-03-06T03:05:24.593Z,4.41
2023-03-06T03:10:28.503Z,4.39
2023-03-06T03:15:26.483Z,4.40
2023-03-06T03:20:23.937Z,4.40
2023-03-06T03:25:22.534Z,4.55
2023-03-06T03:30:20.533Z,4.67
2023-03-06T03:35:20.795Z,4.75
2023-03-06T03:40:19.190Z,4.81
2023-03-06T03:45:20.353Z,4.84
2023-03-06T03:50:18.758Z,4.84
2023-03-06T03:55:16.786Z,4.82
2023-03-06T04:00:16.773Z,4.79
2023-03-06T04:05:25.038Z,4.83
2023-03-06T04:10:23.822Z,4.79
2023-03-06T04:15:22.062Z,4.69
2023-03-06T04:20:20.675Z,4.72
2023-03-06T04:25:19.779Z,4.68
2023-03-06T04:30:18.268Z,4.59
2023-03-06T04:35:16.499Z,4.55
2023-03-06T04:40:29.975Z,4.48
2023-03-06T04:45:29.105Z,4.45
2023-03-06T04:50:28.271Z,4.31
2023-03-06T04:55:26.821Z,4.30
2023-03-06T05:00:25.735Z,4.36
2023-03-06T05:05:24.950Z,4.37
2023-03-06T05:10:23.894Z,4.56
2023-03-06T05:15:22.763Z,4.45
2023-03-06T05:20:20.113Z,4.29
2023-03-06T05:25:20.033Z,4.23
2023-03-06T05:30:21.331Z,4.18
2023-03-06T05:35:19.777Z,4.10
2023-03-06T05:40:17.661Z,4.13
2023-03-06T05:45:17.072Z,4.05
2023-03-06T05:50:15.237Z,4.03
2023-03-06T05:55:13.661Z,4.02
2023-03-06T06:00:11.888Z,3.89
2023-03-06T06:05:14.910Z,3.87
2023-03-06T06:10:13.948Z,3.91
2023-03-06T06:15:23.563Z,3.77
2023-03-06T06:20:21.406Z,3.77
2023-03-06T06:25:19.079Z,3.78
2023-03-06T06:30:21.982Z,3.75
2023-03-06T06:35:19.460Z,3.65
2023-03-06T06:40:17.958Z,3.69
2023-03-06T06:45:17.290Z,3.62
2023-03-06T06:50:15.855Z,3.80
2023-03-06T06:55:14.657Z,3.88
2023-03-06T07:00:13.473Z,4.05
2023-03-06T07:05:11.707Z,4.19
2023-03-06T07:10:13.592Z,4.41
2023-03-06T07:15:12.517Z,4.83
2023-03-06T07:20:12.841Z,5.09
2023-03-06T07:25:11.260Z,5.17
2023-03-06T07:30:09.192Z,5.35
2023-03-06T07:35:19.669Z,5.66
2023-03-06T07:40:20.625Z,5.73
2023-03-06T07:45:18.739Z,6.00
2023-03-06T07:50:17.797Z,5.99
2023-03-06T07:55:15.832Z,6.18
2023-03-06T08:00:14.645Z,6.35
2023-03-06T08:05:15.400Z,6.42
2023-03-06T08:10:14.375Z,6.53
2023-03-06T08:15:13.043Z,6.68
2023-03-06T08:20:11.554Z,7.00
2023-03-06T08:25:20.264Z,6.92
2023-03-06T08:30:19.899Z,7.15
2023-03-06T08:35:18.268Z,7.40
2023-03-06T08:40:18.427Z,7.63
2023-03-06T08:45:17.337Z,7.50
2023-03-06T08:50:15.518Z,7.58
2023-03-06T08:55:15.904Z,7.89
2023-03-06T09:00:14.006Z,7.99
2023-03-06T09:05:12.678Z,7.99
2023-03-06T09:10:14.776Z,7.94
2023-03-06T09:15:13.964Z,8.11
2023-03-06T09:20:14.441Z,8.29
2023-03-06T09:25:22.788Z,8.36
2023-03-06T09:30:20.145Z,8.39
2023-03-06T09:35:18.929Z,8.51
2023-03-06T09:40:19.875Z,8.61
2023-03-06T09:45:20.635Z,8.66
2023-03-06T09:50:29.932Z,8.68
2023-03-06T09:55:28.696Z,8.80
2023-03-06T10:00:31.210Z,9.00
2023-03-06T10:05:34.080Z,9.11
2023-03-06T10:10:42.902Z,9.40
2023-03-06T10:15:41.411Z,9.63
2023-03-06T10:20:45.711Z,9.81
2023-03-06T10:25:43.495Z,9.74
2023-03-06T10:30:40.963Z,9.80
2023-03-06T10:35:41.834Z,9.94
2023-03-06T10:40:43.617Z,10.08
2023-03-06T10:45:53.165Z,10.20
2023-03-06T10:50:53.158Z,10.42
2023-03-06T10:55:52.672Z,10.41
2023-03-06T11:01:04.450Z,10.46
2023-03-06T11:06:03.142Z,10.75
2023-03-06T11:11:04.970Z,10.83
2023-03-06T11:16:08.017Z,10.91
2023-03-06T11:21:08.899Z,10.81
2023-03-06T11:26:12.126Z,11.07
2023-03-06T11:31:19.592Z,11.19
2023-03-06T11:36:18.393Z,11.41
2023-03-06T11:41:24.465Z,11.72
2023-03-06T11:46:23.986Z,11.84
2023-03-06T11:51:29.346Z,11.89
2023-03-06T11:56:34.389Z,11.98
2023-03-06T12:01:33.451Z,12.11
2023-03-06T12:06:33.078Z,12.09
2023-03-06T12:11:42.835Z,12.34
2023-03-06T12:17:01.043Z,12.28
2023-03-06T12:22:40.222Z,12.37
2023-03-06T12:27:57.733Z,12.83
2023-03-06T12:32:58.410Z,12.56
2023-03-06T12:38:34.008Z,12.85
2023-03-06T12:43:52.790Z,13.26
2023-03-06T12:49:12.284Z,13.29
2023-03-06T12:54:15.306Z,13.58
2023-03-06T12:59:37.066Z,13.26
2023-03-06T13:04:47.882Z,13.06
2023-03-06T13:10:06.895Z,12.87
2023-03-06T13:15:30.424Z,12.89
2023-03-06T13:20:48.104Z,12.59
2023-03-06T13:25:48.092Z,12.66
2023-03-06T13:30:46.977Z,12.72
2023-03-06T13:35:49.027Z,12.68
2023-03-06T13:40:46.973Z,12.69
2023-03-06T13:45:44.968Z,12.82
2023-03-06T13:50:47.145Z,12.83
2023-03-06T13:55:48.410Z,12.78
2023-03-06T14:01:11.452Z,13.02
2023-03-06T14:06:29.733Z,13.07
2023-03-06T14:11:28.686Z,13.29
2023-03-06T14:16:29.192Z,13.22
2023-03-06T14:21:32.180Z,13.51
2023-03-06T14:26:34.306Z,14.06
2023-03-06T14:31:36.169Z,15.13
2023-03-06T14:36:36.330Z,16.39
2023-03-06T14:41:36.678Z,15.94
2023-03-06T14:46:35.986Z,15.29
2023-03-06T14:51:37.661Z,15.14
2023-03-06T14:56:36.619Z,14.46
2023-03-06T15:01:46.859Z,13.97
2023-03-06T15:06:45.194Z,13.85
2023-03-06T15:12:03.220Z,13.30
2023-03-06T15:17:21.604Z,13.19
2023-03-06T15:22:32.007Z,13.27
2023-03-06T15:27:30.594Z,13.14
2023-03-06T15:32:30.784Z,12.97
2023-03-06T15:37:29.316Z,12.71
2023-03-06T15:42:28.169Z,12.41
2023-03-06T15:47:26.671Z,12.20
2023-03-06T15:52:24.599Z,12.08
2023-03-06T15:57:23.281Z,11.88
2023-03-06T16:02:21.829Z,11.73
2023-03-06T16:07:20.971Z,11.54
2023-03-06T16:12:19.981Z,11.29
2023-03-06T16:17:18.313Z,11.10
2023-03-06T16:22:16.877Z,10.93
2023-03-06T16:27:20.021Z,10.74
2023-03-06T16:32:18.049Z,10.61
2023-03-06T16:37:19.410Z,10.56
2023-03-06T16:42:19.539Z,10.41
2023-03-06T16:47:17.876Z,10.28
2023-03-06T16:52:29.060Z,10.18
2023-03-06T16:57:32.826Z,9.89
2023-03-06T17:02:30.899Z,9.96
2023-03-06T17:07:38.509Z,9.78
2023-03-06T17:12:39.489Z,9.80
2023-03-06T17:17:37.583Z,9.70
2023-03-06T17:22:42.312Z,9.64
2023-03-06T17:27:44.199Z,9.54
2023-03-06T17:32:42.696Z,9.54
2023-03-06T17:37:40.378Z,9.63
2023-03-06T17:42:38.592Z,9.17
2023-03-06T17:47:36.207Z,9.25
2023-03-06T17:52:41.327Z,9.04
2023-03-06T17:58:28.368Z,9.02
2023-03-06T18:03:26.205Z,8.90
2023-03-06T18:08:24.921Z,8.89
2023-03-06T18:13:25.021Z,8.83
2023-03-06T18:18:22.549Z,8.63
2023-03-06T18:23:27.921Z,8.39
2023-03-06T18:28:31.940Z,8.38
2023-03-06T18:33:29.978Z,8.57
2023-03-06T18:38:30.882Z,8.56
2023-03-06T18:43:30.594Z,8.54
2023-03-06T18:48:28.321Z,8.17
2023-03-06T18:53:26.673Z,8.33
2023-03-06T18:58:27.546Z,8.50
2023-03-06T19:03:27.770Z,8.70
2023-03-06T19:08:35.873Z,8.46
2023-03-06T19:13:47.588Z,8.69
2023-03-06T19:18:48.904Z,8.81
2023-03-06T19:23:49.826Z,8.62
2023-03-06T19:28:48.333Z,8.49
2023-03-06T19:33:51.107Z,7.94
2023-03-06T19:38:53.395Z,7.99
2023-03-06T19:43:54.888Z,8.45
2023-03-06T19:48:56.659Z,8.10
2023-03-06T19:53:56.577Z,8.01
2023-03-06T19:58:56.901Z,7.63
2023-03-06T20:03:59.582Z,7.83
2023-03-06T20:09:09.944Z,8.13
2023-03-06T20:14:28.146Z,7.81
2023-03-06T20:19:31.394Z,7.59
2023-03-06T20:24:29.759Z,7.86
2023-03-06T20:29:28.454Z,7.54
2023-03-06T20:34:32.025Z,7.45
2023-03-06T20:39:30.556Z,7.38
2023-03-06T20:44:32.511Z,7.80
2023-03-06T20:49:34.494Z,8.01
2023-03-06T20:54:35.820Z,7.84
2023-03-06T20:59:37.023Z,8.30
2023-03-06T21:04:38.924Z,8.35
2023-03-06T21:09:45.603Z,7.84
2023-03-06T21:14:45.420Z,8.11
2023-03-06T21:19:48.736Z,8.29
2023-03-06T21:24:56.565Z,8.08
2023-03-06T21:29:57.607Z,8.21
2023-03-06T21:35:00.872Z,8.08
2023-03-06T21:40:03.293Z,6.90
2023-03-06T21:45:04.585Z,6.81
2023-03-06T21:50:06.814Z,7.39
2023-03-06T21:55:08.643Z,7.26
2023-03-06T22:00:12.125Z,6.81
2023-03-06T22:05:11.542Z,6.64
2023-03-06T22:10:16.305Z,6.12
2023-03-06T22:15:16.869Z,6.47
2023-03-06T22:20:15.633Z,5.65
2023-03-06T22:25:24.677Z,5.58
2023-03-06T22:30:22.702Z,6.22
2023-03-06T22:35:20.427Z,6.63
2023-03-06T22:40:19.868Z,6.49
2023-03-06T22:45:20.983Z,6.45
2023-03-06T22:50:20.242Z,6.49
2023-03-06T22:55:26.673Z,5.76
2023-03-06T23:00:25.657Z,6.09
2023-03-06T23:05:22.806Z,6.26
2023-03-06T23:10:20.023Z,5.49
2023-03-06T23:15:37.413Z,5.64
2023-03-06T23:20:59.050Z,6.18
2023-03-06T23:26:19.282Z,5.68
2023-03-06T23:31:24.066Z,5.50
2023-03-06T23:36:45.482Z,5.70
2023-03-06T23:41:44.305Z,6.05
2023-03-06T23:46:42.656Z,6.03
2023-03-06T23:51:44.012Z,6.12
2023-03-06T23:56:45.368Z,6.15
